Time;durP1;ratioP1;P1;durP2;ratioP2;P2;SDS_P1;SDS_P2;PMS_P1;PMS_P2;Temp;Humidity;BMP_temperature;BMP_pressure;BME280_temperature;BME280_humidity;BME280_pressure;Samples;Min_cycle;Max_cycle;Signal;HPM_P1;HPM_P2
2023/06/15 00:02:20;;;;;;;22.43;11.30;;;;;;;18.00;81.10;100302.63;123907;1102;104220;-78
2023/06/15 00:04:52;;;;;;;19.37;10.87;;;;;;;17.97;80.96;100305.28;124099;1102;104332;-77
2023/06/15 00:07:23;;;;;;;20.10;11.33;;;;;;;17.93;81.23;100301.70;123810;1102;104386;-78
2023/06/15 00:09:55;;;;;;;20.17;11.40;;;;;;;17.89;82.04;100304.38;123735;1102;104229;-78
2023/06/15 00:12:26;;;;;;;20.60;11.90;;;;;;;17.85;81.63;100298.13;123905;1102;104306;-77
2023/06/15 00:14:57;;;;;;;21.13;12.20;;;;;;;17.82;81.63;100305.20;123842;1102;104370;-78
2023/06/15 00:17:30;;;;;;;19.93;11.53;;;;;;;17.79;81.70;100306.06;123924;1102;104265;-78
2023/06/15 00:20:07;;;;;;;23.40;12.57;;;;;;;17.77;81.95;100307.84;123953;1100;104252;-77
2023/06/15 00:22:45;;;;;;;22.73;12.17;;;;;;;17.73;82.08;100309.61;123831;1102;104415;-78
2023/06/15 00:25:17;;;;;;;22.70;12.50;;;;;;;17.71;82.14;100313.12;123999;1101;104379;-78
2023/06/15 00:27:48;;;;;;;21.17;12.80;;;;;;;17.67;82.38;100306.93;123877;1101;104237;-78
2023/06/15 00:30:19;;;;;;;19.93;12.03;;;;;;;17.61;82.34;100305.13;123753;1102;104329;-78
2023/06/15 00:32:51;;;;;;;21.80;12.20;;;;;;;17.57;82.97;100305.98;123826;1102;104360;-78
2023/06/15 00:35:22;;;;;;;22.70;12.30;;;;;;;17.53;83.09;100305.97;123828;1101;104252;-79
2023/06/15 00:37:53;;;;;;;23.20;13.40;;;;;;;17.47;82.52;100306.84;123871;1102;104265;-78
2023/06/15 00:40:25;;;;;;;25.23;13.90;;;;;;;17.42;83.10;100304.17;123861;1101;104297;-78
2023/06/15 00:42:58;;;;;;;25.30;14.20;;;;;;;17.39;83.51;100301.51;123735;1102;104650;-78
2023/06/15 00:45:29;;;;;;;23.70;13.95;;;;;;;17.33;83.65;100301.48;123983;1102;104657;-79
2023/06/15 00:48:00;;;;;;;23.80;14.20;;;;;;;17.28;83.90;100297.02;124198;1102;104274;-78
2023/06/15 00:50:32;;;;;;;22.93;14.00;;;;;;;17.23;84.52;100300.55;124527;1102;104198;-79
2023/06/15 00:53:05;;;;;;;24.90;14.07;;;;;;;17.21;83.94;100296.98;124229;1102;104300;-80
2023/06/15 00:55:39;;;;;;;23.57;14.63;;;;;;;17.19;84.13;100304.05;124159;1102;104239;-78
2023/06/15 00:58:10;;;;;;;28.10;15.23;;;;;;;17.17;84.83;100304.91;123938;1102;104251;-79
2023/06/15 01:00:42;;;;;;;22.83;13.97;;;;;;;17.14;84.45;100303.16;123859;1102;104165;-79
2023/06/15 01:03:15;;;;;;;25.77;14.97;;;;;;;17.12;85.02;100301.36;124072;1102;104271;-80
2023/06/15 01:05:47;;;;;;;23.70;14.20;;;;;;;17.09;85.04;100301.34;123877;1102;104185;-79
2023/06/15 01:08:20;;;;;;;25.03;15.47;;;;;;;17.05;85.12;100303.09;123832;1102;104543;-79
2023/06/15 01:10:53;;;;;;;23.80;14.00;;;;;;;17.00;85.54;100299.51;123918;1102;104354;-78
2023/06/15 01:13:25;;;;;;;25.37;15.53;;;;;;;16.99;85.18;100295.11;123939;1102;104257;-79
2023/06/15 01:16:00;;;;;;;24.30;15.27;;;;;;;16.93;85.49;100285.34;123876;1102;104309;-81
2023/06/15 01:18:34;;;;;;;26.13;15.63;;;;;;;16.92;84.86;100290.63;124066;1102;104434;-80
2023/06/15 01:21:06;;;;;;;;;;;;;;;16.89;84.97;100295.05;123810;1102;104226;-79
2023/06/15 01:23:44;;;;;;;25.00;14.57;;;;;;;16.87;85.22;100293.25;123951;1102;104318;-79
2023/06/15 01:26:18;;;;;;;25.47;14.73;;;;;;;16.85;85.41;100290.56;123858;1102;104457;-78
2023/06/15 01:28:50;;;;;;;26.83;14.87;;;;;;;16.82;86.08;100282.59;123850;1102;104283;-79
2023/06/15 01:31:22;;;;;;;24.43;14.23;;;;;;;16.80;86.21;100292.30;123949;1102;104229;-79
2023/06/15 01:33:53;;;;;;;25.13;14.70;;;;;;;16.79;86.32;100287.86;123759;1102;104322;-79
2023/06/15 01:36:24;;;;;;;25.90;14.27;;;;;;;16.76;86.08;100281.67;123825;1101;104230;-79
2023/06/15 01:38:59;;;;;;;23.97;13.37;;;;;;;16.75;86.47;100280.80;123932;1102;104224;-79
2023/06/15 01:41:31;;;;;;;22.13;13.97;;;;;;;16.74;85.82;100278.13;124027;1102;104280;-80
2023/06/15 01:44:08;;;;;;;22.93;14.20;;;;;;;16.71;86.27;100279.86;123772;1100;104373;-78
2023/06/15 01:46:41;;;;;;;23.47;14.03;;;;;;;16.74;85.96;100280.78;124013;1102;104970;-79
2023/06/15 01:49:12;;;;;;;25.27;14.03;;;;;;;16.72;86.21;100272.82;123918;1102;104294;-78
2023/06/15 01:51:43;;;;;;;23.60;14.07;;;;;;;16.71;85.92;100274.56;124013;1102;104307;-79
2023/06/15 01:54:15;;;;;;;23.23;14.17;;;;;;;16.69;86.66;100275.45;123924;1102;104377;-79
2023/06/15 01:56:46;;;;;;;23.30;13.70;;;;;;;16.68;87.03;100278.96;123854;1102;104347;-78
2023/06/15 01:59:17;;;;;;;25.77;14.03;;;;;;;16.66;86.18;100283.38;123824;1102;104351;-78
2023/06/15 02:01:49;;;;;;;24.77;14.50;;;;;;;16.63;86.75;100292.17;123848;1102;104242;-78
2023/06/15 02:04:20;;;;;;;22.93;14.20;;;;;;;16.61;86.86;100293.02;123974;1102;104160;-78
2023/06/15 02:06:52;;;;;;;24.47;13.93;;;;;;;16.60;87.17;100299.22;123898;1102;104322;-78
2023/06/15 02:09:24;;;;;;;22.63;14.03;;;;;;;16.57;86.93;100299.20;124019;1102;104347;-79
2023/06/15 02:11:55;;;;;;;24.53;13.90;;;;;;;16.57;87.66;100293.90;123952;1102;104350;-79
2023/06/15 02:14:27;;;;;;;24.47;13.80;;;;;;;16.55;87.70;100291.23;123802;1102;104351;-78
2023/06/15 02:16:59;;;;;;;23.83;14.03;;;;;;;16.54;87.60;100292.98;123817;1102;104629;-80
2023/06/15 02:19:30;;;;;;;25.63;13.50;;;;;;;16.52;87.92;100289.44;123907;1102;104245;-77
2023/06/15 02:22:01;;;;;;;23.15;12.70;;;;;;;16.52;87.90;100289.44;123903;1102;104165;-83
2023/06/15 02:24:33;;;;;;;22.40;12.67;;;;;;;16.52;87.63;100289.44;123878;1102;104403;-79
2023/06/15 02:27:04;;;;;;;23.83;13.00;;;;;;;16.51;87.94;100292.08;123857;1102;104242;-80
2023/06/15 02:29:35;;;;;;;23.33;12.57;;;;;;;16.50;87.73;100296.50;123782;1102;104277;-79
2023/06/15 02:32:08;;;;;;;21.37;13.03;;;;;;;16.51;87.84;100300.90;124111;1102;104300;-77
2023/06/15 02:34:40;;;;;;;23.55;13.25;;;;;;;16.51;88.46;100303.55;124078;1102;104172;-77
2023/06/15 02:37:11;;;;;;;22.33;12.37;;;;;;;16.50;88.39;100296.50;123919;1101;104245;-77
2023/06/15 02:39:43;;;;;;;20.40;11.57;;;;;;;16.48;88.11;100308.81;123916;1102;104400;-77
2023/06/15 02:42:15;;;;;;;21.57;12.00;;;;;;;16.48;88.79;100311.47;123888;1102;110789;-77
2023/06/15 02:44:46;;;;;;;22.30;12.20;;;;;;;16.48;88.82;100307.94;123842;1102;104176;-80
2023/06/15 02:47:18;;;;;;;22.67;11.93;;;;;;;16.47;88.63;100304.41;123832;1101;104355;-78
2023/06/15 02:49:50;;;;;;;19.60;11.40;;;;;;;16.48;88.93;100310.59;123799;1102;104316;-78
2023/06/15 02:52:22;;;;;;;25.47;12.30;;;;;;;16.48;89.66;100314.11;123874;1102;104179;-78
2023/06/15 02:54:53;;;;;;;21.57;12.10;;;;;;;16.48;88.81;100324.70;123867;1102;104367;-79
2023/06/15 02:57:25;;;;;;;22.37;12.10;;;;;;;16.48;89.42;100326.48;124084;1102;104197;-78
2023/06/15 03:00:19;;;;;;;24.07;11.77;;;;;;;16.50;88.79;100327.37;124017;1101;104255;-77
2023/06/15 03:03:01;;;;;;;;;;;;;;;16.51;89.47;100318.56;124036;1102;104229;-78
2023/06/15 03:05:39;;;;;;;22.73;10.63;;;;;;;16.53;89.68;100323.01;123920;1102;104711;-77
2023/06/15 03:08:12;;;;;;;19.20;11.23;;;;;;;16.57;89.80;100328.33;124178;1102;104306;-78
2023/06/15 03:10:56;;;;;;;20.02;11.60;;;;;;;16.57;89.51;100318.61;123951;1102;104194;-78
2023/06/15 03:13:28;;;;;;;19.20;10.87;;;;;;;16.60;89.13;100323.94;123917;1102;104255;-78
2023/06/15 03:16:01;;;;;;;19.80;11.10;;;;;;;16.62;89.06;100326.59;123823;1102;104392;-78
2023/06/15 03:18:33;;;;;;;20.13;11.37;;;;;;;16.64;89.36;100319.54;123821;1102;104252;-78
2023/06/15 03:21:07;;;;;;;19.90;11.17;;;;;;;16.65;89.37;100323.97;123835;1102;104845;-78
2023/06/15 03:23:41;;;;;;;19.80;11.70;;;;;;;16.67;89.48;100331.07;124026;1103;104185;-78
2023/06/15 03:26:12;;;;;;;18.35;11.15;;;;;;;16.68;89.93;100332.83;123824;1101;104261;-79
2023/06/15 03:28:44;;;;;;;20.93;12.17;;;;;;;16.70;89.89;100330.19;123779;1102;104390;-79
2023/06/15 03:31:18;;;;;;;18.90;11.57;;;;;;;16.75;89.69;100340.82;123852;1102;104245;-78
2023/06/15 03:33:50;;;;;;;19.87;11.20;;;;;;;16.78;89.77;100333.81;123826;1102;104262;-78
2023/06/15 03:36:24;;;;;;;21.97;12.07;;;;;;;16.84;89.64;100332.95;123928;1102;104249;-78
2023/06/15 03:38:56;;;;;;;18.40;10.90;;;;;;;16.92;89.84;100330.38;124063;1102;104349;-78
2023/06/15 03:41:27;;;;;;;20.53;11.30;;;;;;;16.99;90.15;100322.48;123983;1102;104206;-80
2023/06/15 03:44:00;;;;;;;20.33;10.80;;;;;;;17.09;90.06;100328.73;123912;1102;104201;-80
2023/06/15 03:46:32;;;;;;;22.83;11.50;;;;;;;17.20;89.91;100321.75;123980;1102;104236;-80
2023/06/15 03:49:03;;;;;;;23.37;11.07;;;;;;;17.30;90.08;100335.06;124005;1102;104226;-79
2023/06/15 03:51:34;;;;;;;19.73;10.90;;;;;;;17.41;90.25;100336.00;123950;1102;104386;-80
2023/06/15 03:54:06;;;;;;;20.17;11.30;;;;;;;17.53;90.17;100335.14;123789;1102;104318;-79
2023/06/15 03:56:38;;;;;;;21.40;10.77;;;;;;;17.65;89.96;100335.20;123848;1102;104223;-78
2023/06/15 03:59:09;;;;;;;17.73;10.20;;;;;;;17.77;89.99;100343.21;123870;1102;104165;-78
2023/06/15 04:01:43;;;;;;;21.83;11.30;;;;;;;17.88;90.07;100335.33;123875;1100;104299;-79
2023/06/15 04:04:14;;;;;;;19.10;11.12;;;;;;;17.99;89.89;100335.36;123796;1102;104341;-79
2023/06/15 04:06:47;;;;;;;18.47;11.13;;;;;;;18.09;90.03;100342.48;123828;1102;104719;-77
2023/06/15 04:09:20;;;;;;;19.93;10.43;;;;;;;18.17;89.72;100345.15;123996;1102;104245;-77
2023/06/15 04:11:51;;;;;;;21.23;10.90;;;;;;;18.25;89.55;100332.77;123804;1102;104235;-77
2023/06/15 04:14:23;;;;;;;18.10;10.07;;;;;;;18.33;89.53;100330.99;123904;1102;104264;-77
2023/06/15 04:16:54;;;;;;;19.43;10.53;;;;;;;18.39;88.99;100335.44;123702;1102;104265;-77
2023/06/15 04:19:26;;;;;;;19.37;10.60;;;;;;;18.43;88.92;100334.57;123637;1102;104333;-77
2023/06/15 04:21:58;;;;;;;;;;;;;;;18.44;88.37;100332.79;123912;1102;104356;-79
2023/06/15 04:24:29;;;;;;;21.03;10.93;;;;;;;18.43;88.75;100333.66;123834;1102;104297;-78
2023/06/15 04:27:01;;;;;;;19.45;11.10;;;;;;;18.42;88.68;100326.59;123949;1102;104351;-78
2023/06/15 04:29:32;;;;;;;21.93;10.83;;;;;;;18.40;88.95;100331.00;123916;1102;104162;-79
2023/06/15 04:32:05;;;;;;;20.07;11.13;;;;;;;18.39;88.04;100345.19;123891;1102;104316;-79
2023/06/15 04:34:39;;;;;;;20.57;11.00;;;;;;;18.36;88.46;100346.06;123870;1101;104428;-79
2023/06/15 04:37:11;;;;;;;19.43;10.50;;;;;;;18.37;88.28;100341.63;123892;1102;104220;-79
2023/06/15 04:39:43;;;;;;;21.03;11.27;;;;;;;18.37;88.56;100331.91;124021;1102;104245;-80
2023/06/15 04:42:17;;;;;;;19.87;10.93;;;;;;;18.40;87.79;100331.00;123948;1102;104354;-79
2023/06/15 04:44:49;;;;;;;20.43;11.17;;;;;;;18.40;87.97;100333.66;123780;1102;104453;-78
2023/06/15 04:47:20;;;;;;;21.90;11.57;;;;;;;18.42;87.89;100335.44;124062;1102;104318;-79
2023/06/15 04:49:52;;;;;;;19.07;11.60;;;;;;;18.46;87.95;100336.32;124049;1102;104528;-78
2023/06/15 04:52:23;;;;;;;22.80;12.27;;;;;;;18.53;87.90;100338.11;123975;1102;104232;-80
2023/06/15 04:54:55;;;;;;;21.97;11.73;;;;;;;18.65;87.94;100331.89;124238;1102;118120;-79
2023/06/15 04:57:26;;;;;;;23.83;11.93;;;;;;;18.79;87.87;100339.86;124013;1102;104922;-81
2023/06/15 04:59:58;;;;;;;18.87;11.27;;;;;;;18.91;88.05;100331.04;124229;1102;104398;-79
2023/06/15 05:02:29;;;;;;;21.27;10.97;;;;;;;19.03;88.24;100334.56;124228;1102;104187;-80
2023/06/15 05:05:01;;;;;;;23.60;11.80;;;;;;;19.13;87.41;100346.05;123998;1102;104303;-80
2023/06/15 05:07:32;;;;;;;18.67;10.80;;;;;;;19.20;87.47;100345.16;124093;1102;104248;-82
2023/06/15 05:10:07;;;;;;;23.65;11.70;;;;;;;19.29;87.79;100343.36;124236;1102;104400;-80
2023/06/15 05:12:39;;;;;;;20.23;11.70;;;;;;;19.34;86.81;100350.45;124259;1102;104625;-80
2023/06/15 05:15:11;;;;;;;19.63;10.67;;;;;;;19.39;86.59;100348.66;124278;1102;102568;-81
2023/06/15 05:17:43;;;;;;;21.07;11.37;;;;;;;19.44;87.13;100347.77;124191;1102;104357;-79
2023/06/15 05:20:15;;;;;;;18.60;10.83;;;;;;;19.48;86.62;100346.88;124283;1102;104198;-77
2023/06/15 05:22:47;;;;;;;23.23;11.20;;;;;;;19.53;86.46;100340.63;124445;1102;104165;-79
2023/06/15 05:25:22;;;;;;;19.67;10.50;;;;;;;19.60;86.34;100341.48;125256;1102;104165;-79
2023/06/15 05:27:54;;;;;;;22.90;11.00;;;;;;;19.68;86.02;100337.03;124481;1102;104227;-78
2023/06/15 05:30:27;;;;;;;17.45;10.25;;;;;;;19.76;86.28;100334.34;124681;1102;102608;-82
2023/06/15 05:32:58;;;;;;;18.73;10.20;;;;;;;19.85;86.00;100339.66;124653;1102;103263;-81
2023/06/15 05:35:30;;;;;;;20.17;9.77;;;;;;;19.95;85.71;100336.95;124637;1102;104066;-81
2023/06/15 05:38:02;;;;;;;23.40;10.33;;;;;;;20.03;85.83;100335.12;124619;1102;104175;-80
2023/06/15 05:40:34;;;;;;;20.33;9.53;;;;;;;20.13;85.72;100339.48;124482;1102;104281;-82
2023/06/15 05:43:06;;;;;;;16.87;9.60;;;;;;;20.22;84.72;100336.76;124553;1102;104208;-78
2023/06/15 05:45:38;;;;;;;18.77;9.63;;;;;;;20.33;84.57;100339.35;124481;1102;102615;-80
2023/06/15 05:48:13;;;;;;;16.53;8.83;;;;;;;20.40;84.27;100338.42;124653;1102;104541;-80
2023/06/15 05:50:53;;;;;;;21.23;9.63;;;;;;;20.50;84.82;100341.02;124658;1102;104249;-81
2023/06/15 05:53:25;;;;;;;16.97;9.17;;;;;;;20.56;83.93;100335.64;124551;1102;104334;-81
2023/06/15 05:55:58;;;;;;;18.50;10.23;;;;;;;20.67;83.54;100338.26;124803;1103;103282;-81
2023/06/15 05:58:34;;;;;;;18.73;10.60;;;;;;;20.75;83.39;100339.07;124725;1102;103508;-80
2023/06/15 06:01:08;;;;;;;21.40;10.50;;;;;;;20.81;83.71;100345.22;124798;1102;104338;-80
2023/06/15 06:03:59;;;;;;;19.83;11.23;;;;;;;20.89;83.17;100342.48;124812;1102;103415;-80
2023/06/15 06:06:34;;;;;;;22.70;10.78;;;;;;;20.98;83.24;100346.86;126127;1102;111358;-81
2023/06/15 06:09:06;;;;;;;20.10;10.67;;;;;;;21.06;82.85;100342.33;124950;1102;102246;-78
2023/06/15 06:11:38;;;;;;;20.83;10.30;;;;;;;21.13;82.83;100343.14;124694;1102;104210;-77
2023/06/15 06:14:10;;;;;;;16.33;9.23;;;;;;;21.20;82.32;100342.19;124410;1102;104274;-79
2023/06/15 06:16:42;;;;;;;17.87;9.40;;;;;;;21.29;82.21;100349.22;124695;1102;103277;-79
2023/06/15 06:19:14;;;;;;;17.27;8.97;;;;;;;21.37;81.61;100347.34;125009;1102;102820;-80
2023/06/15 06:21:56;;;;;;;17.50;9.03;;;;;;;21.47;81.65;100342.78;124874;1102;104255;-78
2023/06/15 06:24:32;;;;;;;17.50;8.87;;;;;;;21.53;82.19;100340.07;124562;1102;103453;-79
2023/06/15 06:27:12;;;;;;;19.53;10.00;;;;;;;21.69;81.29;100349.67;124802;1102;108651;-79
2023/06/15 06:29:51;;;;;;;17.53;8.87;;;;;;;21.78;80.70;100347.78;124804;1102;103674;-76
2023/06/15 06:32:35;;;;;;;17.07;9.13;;;;;;;21.85;80.64;100345.02;124811;1100;104245;-78
2023/06/15 06:35:10;;;;;;;17.65;9.30;;;;;;;21.96;80.95;100344.00;124879;1102;103441;-79
2023/06/15 06:37:42;;;;;;;17.73;8.57;;;;;;;22.03;80.61;100342.98;124990;1102;102392;-79
2023/06/15 06:40:15;;;;;;;15.60;8.60;;;;;;;22.08;80.79;100342.03;124607;1102;104229;-75
2023/06/15 06:42:46;;;;;;;14.93;8.10;;;;;;;22.17;80.05;100340.99;124468;1102;104172;-79
2023/06/15 06:45:21;;;;;;;15.13;7.77;;;;;;;22.25;80.62;100333.77;124554;1102;104219;-78
2023/06/15 06:47:52;;;;;;;17.50;8.20;;;;;;;22.40;79.37;100337.14;124449;1102;104682;-76
2023/06/15 06:50:28;;;;;;;15.20;7.90;;;;;;;22.49;79.74;100331.64;124516;1102;104195;-80
2023/06/15 06:52:59;;;;;;;17.00;7.77;;;;;;;22.58;79.03;100333.30;124431;1102;103477;-75
2023/06/15 06:55:35;;;;;;;18.07;7.70;;;;;;;22.65;78.41;100315.36;124588;1102;104287;-79
2023/06/15 06:58:07;;;;;;;17.57;7.80;;;;;;;22.81;78.95;100332.88;124461;1102;104300;-79
2023/06/15 07:00:41;;;;;;;12.17;7.23;;;;;;;22.97;78.42;100323.69;124391;1101;104226;-78
2023/06/15 07:03:15;;;;;;;16.37;7.20;;;;;;;23.16;77.94;100328.73;124501;1102;103797;-78
2023/06/15 07:05:51;;;;;;;14.00;7.25;;;;;;;23.35;77.53;100323.90;124503;1102;104354;-81
2023/06/15 07:08:22;;;;;;;15.07;7.40;;;;;;;23.54;77.77;100324.41;124386;1101;104179;-80
2023/06/15 07:10:54;;;;;;;15.97;7.10;;;;;;;23.75;77.86;100325.77;124301;1102;104341;-79
2023/06/15 07:13:30;;;;;;;14.17;6.90;;;;;;;23.94;76.99;100318.23;124697;1102;104169;-78
2023/06/15 07:16:09;;;;;;;15.43;7.20;;;;;;;24.20;76.48;100314.08;124545;1102;102817;-79
2023/06/15 07:18:46;;;;;;;14.20;6.67;;;;;;;24.50;74.50;100314.25;124736;1102;102289;-81
2023/06/15 07:21:21;;;;;;;13.50;6.37;;;;;;;24.63;75.09;100317.53;124680;1102;104205;-76
2023/06/15 07:24:03;;;;;;;14.90;6.37;;;;;;;24.80;74.73;100314.42;124436;1102;103179;-80
2023/06/15 07:26:42;;;;;;;11.13;6.30;;;;;;;24.94;73.67;100317.61;124362;1101;104147;-77
2023/06/15 07:29:16;;;;;;;12.23;6.20;;;;;;;25.17;73.50;100308.94;124561;1102;104195;-79
2023/06/15 07:31:48;;;;;;;13.13;6.70;;;;;;;25.37;73.09;100311.10;124834;1102;104156;-82
2023/06/15 07:34:21;;;;;;;10.07;5.97;;;;;;;25.53;72.39;100310.66;124709;1100;104166;-79
2023/06/15 07:36:53;;;;;;;12.95;5.97;;;;;;;25.75;71.84;100311.77;124798;1100;104274;-77
2023/06/15 07:39:25;;;;;;;11.23;5.10;;;;;;;26.00;70.09;100305.67;124776;1102;104252;-76
2023/06/15 07:42:06;;;;;;;8.17;4.53;;;;;;;26.28;67.24;100299.42;124503;1102;104369;-78
2023/06/15 07:44:37;;;;;;;10.93;4.67;;;;;;;26.48;67.44;100296.95;124557;1102;104239;-80
2023/06/15 07:47:10;;;;;;;7.37;4.67;;;;;;;26.70;66.14;100294.44;124636;1102;104258;-80
2023/06/15 07:49:41;;;;;;;14.20;5.33;;;;;;;26.85;63.92;100302.94;124535;1102;104198;-81
2023/06/15 07:52:13;;;;;;;10.10;4.77;;;;;;;27.06;63.92;100306.66;124669;1102;104277;-81
2023/06/15 07:54:50;;;;;;;10.20;5.33;;;;;;;27.23;63.56;100304.23;124637;1102;103164;-78
2023/06/15 07:57:26;;;;;;;10.83;5.90;;;;;;;27.10;61.97;100300.25;124453;1102;104827;-78
2023/06/15 08:00:05;;;;;;;13.03;6.70;;;;;;;26.93;60.77;100299.94;124612;1101;102905;-76
2023/06/15 08:02:37;;;;;;;;;;;;;;;26.85;60.46;100300.24;124728;1100;104211;-79
2023/06/15 08:05:11;;;;;;;10.23;6.10;;;;;;;26.94;61.20;100304.41;124643;1102;104195;-80
2023/06/15 08:07:42;;;;;;;8.60;5.43;;;;;;;27.10;58.55;100294.86;126152;1100;103753;-81
2023/06/15 08:10:18;;;;;;;9.70;5.33;;;;;;;27.48;59.25;100291.72;126089;1101;102601;-79
2023/06/15 08:12:52;;;;;;;12.77;6.03;;;;;;;27.76;58.51;100292.39;126098;1100;102626;-81
2023/06/15 08:15:29;;;;;;;13.60;6.10;;;;;;;27.97;56.62;100297.91;126299;1100;102280;-81
2023/06/15 08:17:59;;;;;;;;;;;;;;;27.92;53.59;100300.75;125352;1101;104254;-80
2023/06/15 08:20:31;;;;;;;9.97;5.90;;;;;;;28.01;55.54;100298.69;124567;1102;102727;-76
2023/06/15 08:23:04;;;;;;;8.17;5.50;;;;;;;28.17;55.67;100291.72;124525;1102;102675;-76
2023/06/15 08:25:35;;;;;;;10.35;5.65;;;;;;;28.40;55.44;100300.70;124295;1102;104245;-78
2023/06/15 08:28:07;;;;;;;11.10;5.30;;;;;;;28.67;55.74;100293.27;124582;1102;104258;-81
2023/06/15 08:30:46;;;;;;;11.60;6.13;;;;;;;28.93;54.86;100289.45;124720;1102;104276;-80
2023/06/15 08:33:22;;;;;;;10.82;5.53;;;;;;;29.11;54.04;100289.56;124710;1102;104132;-81
2023/06/15 08:35:55;;;;;;;6.73;4.83;;;;;;;29.21;53.89;100293.66;124475;1102;102294;-84
2023/06/15 08:38:31;;;;;;;10.67;5.57;;;;;;;29.33;54.04;100286.83;124821;1100;102693;-81
2023/06/15 08:41:05;;;;;;;9.80;5.03;;;;;;;29.46;53.17;100288.00;124899;1102;102963;-81
2023/06/15 08:43:49;;;;;;;9.88;4.80;;;;;;;29.64;52.61;100291.69;124545;1102;104264;-81
2023/06/15 08:46:26;;;;;;;9.37;5.07;;;;;;;29.64;51.14;100290.78;124668;1102;104280;-82
2023/06/15 08:49:03;;;;;;;7.27;5.00;;;;;;;29.63;49.71;100286.34;125180;1102;104263;-82
2023/06/15 08:51:40;;;;;;;10.63;5.27;;;;;;;29.74;49.69;100289.41;124908;1102;103286;-83
2023/06/15 08:54:18;;;;;;;8.97;5.00;;;;;;;29.92;50.17;100291.27;125551;1102;102524;-82
2023/06/15 08:56:56;;;;;;;10.60;5.03;;;;;;;29.98;48.86;100292.81;125502;1102;104274;-84
2023/06/15 08:59:37;;;;;;;6.70;4.47;;;;;;;30.05;49.12;100287.97;125682;1102;103020;-79
2023/06/15 09:02:22;;;;;;;7.03;4.23;;;;;;;30.14;48.77;100281.22;124816;1102;102412;-81
2023/06/15 09:04:56;;;;;;;10.20;4.92;;;;;;;30.23;47.38;100275.35;124706;1102;104060;-82
2023/06/15 09:07:39;;;;;;;11.10;4.70;;;;;;;30.45;47.64;100286.03;125468;1102;104226;-81
2023/06/15 09:10:20;;;;;;;11.00;4.90;;;;;;;30.46;45.83;100280.55;125385;1102;102796;-81
2023/06/15 09:12:59;;;;;;;7.50;4.30;;;;;;;30.36;45.86;100289.17;124558;1102;102786;-80
2023/06/15 09:15:41;;;;;;;7.62;4.55;;;;;;;30.12;45.91;100292.11;125439;1102;102392;-82
2023/06/15 09:18:21;;;;;;;8.87;4.40;;;;;;;29.83;44.90;100283.59;124892;1102;104169;-83
2023/06/15 09:21:05;;;;;;;6.53;4.07;;;;;;;29.67;45.47;100283.43;125616;1102;102279;-81
2023/06/15 09:23:57;;;;;;;6.00;4.22;;;;;;;29.76;45.23;100280.29;125000;1101;103753;-83
2023/06/15 09:26:36;;;;;;;5.57;4.10;;;;;;;29.92;44.55;100285.86;124956;1102;103183;-82
2023/06/15 09:29:15;;;;;;;9.30;4.10;;;;;;;30.09;44.05;100273.33;125114;1101;102465;-80
2023/06/15 09:31:51;;;;;;;10.67;4.10;;;;;;;30.06;44.12;100271.67;124988;1102;103334;-79
2023/06/15 09:34:23;;;;;;;7.80;4.17;;;;;;;30.05;43.51;100266.33;124788;1102;102184;-81
2023/06/15 09:36:55;;;;;;;6.37;3.90;;;;;;;30.02;43.69;100275.46;124771;1102;104217;-74
2023/06/15 09:39:26;;;;;;;8.00;4.20;;;;;;;29.82;43.10;100270.16;124692;1102;104290;-78
2023/06/15 09:42:02;;;;;;;8.60;4.40;;;;;;;29.59;42.69;100266.67;124381;1101;104172;-78
2023/06/15 09:44:34;;;;;;;7.47;4.30;;;;;;;29.54;43.19;100268.72;124557;1102;103667;-78
2023/06/15 09:47:22;;;;;;;7.73;4.57;;;;;;;29.39;43.09;100268.50;124804;1102;104241;-80
2023/06/15 09:50:05;;;;;;;8.90;4.30;;;;;;;29.32;43.19;100264.31;125274;1102;102912;-83
2023/06/15 09:52:50;;;;;;;9.83;4.20;;;;;;;29.44;43.33;100264.72;125250;1102;104150;-81
2023/06/15 09:55:45;;;;;;;6.00;4.40;;;;;;;29.58;43.47;100260.40;124889;1102;103078;-80
2023/06/15 09:58:24;;;;;;;6.20;4.13;;;;;;;29.57;42.98;100261.33;124981;1102;102883;-79
2023/06/15 10:01:03;;;;;;;7.57;4.37;;;;;;;29.47;42.98;100253.77;124972;1102;104262;-78
2023/06/15 10:03:43;;;;;;;8.03;4.67;;;;;;;29.24;42.65;100254.83;125097;1102;104130;-79
2023/06/15 10:06:18;;;;;;;9.23;4.40;;;;;;;29.04;42.56;100260.13;125057;1102;104232;-80
2023/06/15 10:08:57;;;;;;;7.33;4.20;;;;;;;28.78;42.06;100255.91;125429;1102;104372;-78
2023/06/15 10:11:30;;;;;;;8.63;4.53;;;;;;;28.59;42.40;100257.64;124565;1101;104220;-75
2023/06/15 10:14:10;;;;;;;7.63;4.27;;;;;;;28.57;42.36;100246.87;124635;1102;104248;-78
2023/06/15 10:16:45;;;;;;;8.43;4.43;;;;;;;28.73;42.62;100240.84;124689;1102;103417;-78
2023/06/15 10:19:17;;;;;;;5.37;4.17;;;;;;;28.96;42.40;100239.83;124361;1102;102076;-75
2023/06/15 10:21:51;;;;;;;8.37;4.40;;;;;;;29.13;42.49;100245.34;124351;1102;107636;-79
2023/06/15 10:24:26;;;;;;;5.55;3.85;;;;;;;29.23;42.20;100235.02;125004;1102;103239;-79
2023/06/15 10:27:00;;;;;;;9.73;4.20;;;;;;;29.28;41.88;100233.00;124752;1102;104274;-76
2023/06/15 10:29:40;;;;;;;6.92;4.17;;;;;;;29.19;41.75;100227.98;124690;1102;104272;-79
2023/06/15 10:32:16;;;;;;;11.70;4.00;;;;;;;29.20;41.97;100229.75;124628;1102;120236;-80
2023/06/15 10:34:56;;;;;;;6.17;3.97;;;;;;;29.33;41.97;100236.35;124778;1102;104169;-80
2023/06/15 10:37:35;;;;;;;7.10;4.07;;;;;;;29.21;41.82;100234.22;124411;1102;102152;-81
2023/06/15 10:40:18;;;;;;;6.77;3.93;;;;;;;29.08;41.26;100230.28;124233;1102;104245;-78
2023/06/15 10:42:59;;;;;;;6.87;4.07;;;;;;;28.92;41.38;100236.41;124437;1100;104232;-76
2023/06/15 10:45:33;;;;;;;6.17;4.00;;;;;;;28.75;41.11;100233.55;124498;1102;104261;-80
2023/06/15 10:48:20;;;;;;;8.17;4.20;;;;;;;28.60;41.14;100229.72;124368;1102;104243;-81
2023/06/15 10:51:02;;;;;;;7.10;3.90;;;;;;;28.64;41.14;100231.31;124569;1101;103484;-81
2023/06/15 10:53:40;;;;;;;6.10;3.50;;;;;;;28.83;41.30;100223.31;124478;1102;104194;-80
2023/06/15 10:56:18;;;;;;;9.97;3.90;;;;;;;29.06;40.97;100227.64;124565;1102;104359;-79
2023/06/15 10:58:57;;;;;;;10.97;3.87;;;;;;;29.32;40.98;100221.08;124743;1102;104175;-81
2023/06/15 11:01:32;;;;;;;6.33;3.57;;;;;;;29.51;40.25;100220.21;124522;1102;104046;-80
2023/06/15 11:04:25;;;;;;;6.70;3.63;;;;;;;29.71;40.59;100219.26;124713;1102;104222;-79
2023/06/15 11:07:02;;;;;;;7.60;3.77;;;;;;;29.88;40.69;100210.36;124703;1102;104248;-79
2023/06/15 11:09:41;;;;;;;7.83;3.30;;;;;;;29.98;40.63;100202.66;124695;1102;102171;-78
2023/06/15 11:12:36;;;;;;;7.10;3.50;;;;;;;29.84;40.11;100208.75;124809;1102;104185;-78
2023/06/15 11:15:10;;;;;;;7.37;4.10;;;;;;;29.45;39.81;100204.28;124618;1102;104169;-76
2023/06/15 11:17:59;;;;;;;8.23;4.10;;;;;;;29.15;39.99;100202.05;124659;1102;104274;-80
2023/06/15 11:21:03;;;;;;;8.25;3.95;;;;;;;29.05;40.00;100207.00;126195;1099;102343;-78
2023/06/15 11:23:37;;;;;;;5.87;3.87;;;;;;;29.02;40.00;100205.31;125770;1102;102440;-80
2023/06/15 11:26:15;;;;;;;6.57;3.80;;;;;;;28.94;40.01;100204.80;126043;1099;102592;-79
2023/06/15 11:28:48;;;;;;;3.57;3.10;;;;;;;28.87;39.98;100203.30;126090;1099;102765;-77
2023/06/15 11:31:24;;;;;;;4.60;3.43;;;;;;;28.94;39.25;100193.98;126239;1101;102478;-77
2023/06/15 11:33:58;;;;;;;6.97;3.63;;;;;;;29.04;39.49;100189.03;126208;1099;113455;-82
2023/06/15 11:36:32;;;;;;;5.47;3.60;;;;;;;29.20;39.26;100181.12;126064;1102;102883;-78